• Join FlightAware (Why Join?)
  • Login
  • US Flag 
03:29PM EDT


 

Airport Tracker/Info


-or-


 

Live Flight TrackerFlight Track Log ✈ JIA2547 ✈ 21-Jun-2013 ✈ KPHL - KSDF

Flight Track Log - Related Links

Times and Time Zones

All times are in EDT time to prevent confusion due to time zone crossing. See the JIA2547 flight status page for this flight to view local times or setup timezone preferences in your user account.

Time Position Orientation Groundspeed Altitude Reporting Facility
EDT Latitude Longitude Course Direction KTS MPH feet Rate Location/Type
09:43PM 39.8667 -75.2833 247° West 171 197 600  Level Philadelphia TRACON
09:44PM 39.8500 -75.3333 255° West 197 227 2,500 2,040 Climbing Philadelphia TRACON
09:45PM 39.8333 -75.4167 255° West 266 306 4,500 2,220 Climbing Philadelphia TRACON
09:47PM 39.8861 -75.6325 288° West 281 323 10,300 2,220 Climbing New York Center
09:48PM 39.9075 -75.7233 287° West 281 323 12,100 1,920 Climbing New York Center
09:49PM 39.8900 -75.8356 259° West 281 323 14,100 1,800 Climbing New York Center
09:51PM 39.8483 -76.0103 253° West 289 333 17,000 1,500 Climbing Washington Center
09:52PM 39.8250 -76.1183 254° West 307 353 18,200 1,260 Climbing Washington Center
09:53PM 39.7994 -76.2289 253° West 312 359 19,600 1,200 Climbing Washington Center
09:54PM 39.7697 -76.3447 252° West 326 375 20,700 1,020 Climbing Washington Center
09:55PM 39.7397 -76.4578 251° West 336 387 21,700 1,020 Climbing Washington Center
09:56PM 39.7075 -76.5786 251° West 343 395 22,800 1,020 Climbing Washington Center
09:57PM 39.6772 -76.6997 252° West 349 402 23,800 960 Climbing Washington Center
09:58PM 39.6469 -76.8231 252° West 354 407 24,800 900 Climbing Washington Center
09:59PM 39.6164 -76.9492 253° West 360 414 25,700 720 Climbing Washington Center
10:00PM 39.5858 -77.0753 253° West 365 420 26,300 540 Climbing Washington Center
10:01PM 39.5508 -77.2036 251° West 365 420 26,900 540 Climbing Washington Center
10:02PM 39.5178 -77.3347 252° West 371 427 27,500 540 Climbing Washington Center
10:03PM 39.4844 -77.4683 252° West 384 442 28,000 540 Climbing Washington Center
10:04PM 39.4511 -77.6019 252° West 390 449 28,600 600 Climbing Washington Center
10:05PM 39.4153 -77.7353 251° West 395 455 29,200 600 Climbing Washington Center
10:06PM 39.3797 -77.8683 251° West 395 455 29,800 540 Climbing Washington Center
10:07PM 39.3314 -77.9958 244° Southwest 400 460 30,300 480 Climbing Washington Center
10:08PM 39.2808 -78.1175 242° Southwest 400 460 30,800 480 Climbing Washington Center
10:09PM 39.2511 -78.2422 253° West 400 460 31,300 480 Climbing Washington Center
10:10PM 39.2167 -78.3778 252° West 400 460 31,800 300 Climbing Washington Center
10:11PM 39.1864 -78.5131 254° West 400 460 32,000 60 Climbing Washington Center
10:12PM 39.1539 -78.6536 253° West 400 460 32,000  Level Washington Center
10:13PM 39.1231 -78.7917 254° West 400 460 32,000  Level Washington Center
10:14PM 39.0900 -78.9344 253° West 405 466 32,000  Level Washington Center
10:15PM 39.0589 -79.0747 254° West 410 472 32,000  Level Washington Center
10:16PM 39.0300 -79.2125 255° West 410 472 32,000  Level Washington Center
10:17PM 38.9983 -79.3550 254° West 416 479 32,000  Level Washington Center
10:18PM 38.9644 -79.5003 253° West 416 479 32,000  Level Washington Center
10:19PM 38.9306 -79.6478 254° West 416 479 32,000  Level Washington Center
10:20PM 38.8897 -79.8031 251° West 422 486 32,000  Level Washington Center
10:20PM 38.8575 -79.9119 249° West 427 491 32,000  Level Indianapolis Center
10:21PM 38.8258 -80.0347 252° West 422 486 32,000  Level Indianapolis Center
10:22PM 38.7797 -80.2061 251° West 423 487 32,000  Level Indianapolis Center
10:23PM 38.7408 -80.3481 251° West 421 484 32,000  Level Indianapolis Center
10:24PM 38.7039 -80.4889 251° West 418 481 32,000  Level Indianapolis Center
10:25PM 38.6658 -80.6294 251° West 417 480 32,000  Level Indianapolis Center
10:26PM 38.6275 -80.7706 251° West 420 483 32,000  Level Indianapolis Center
10:28PM 38.5889 -80.9111 251° West 419 482 32,000  Level Indianapolis Center
10:29PM 38.5489 -81.0514 250° West 417 480 32,000  Level Indianapolis Center
10:30PM 38.5100 -81.1931 251° West 420 483 32,000  Level Indianapolis Center
10:31PM 38.4703 -81.3342 250° West 418 481 32,000  Level Indianapolis Center
10:32PM 38.4306 -81.4747 250° West 416 479 32,000  Level Indianapolis Center
10:33PM 38.3911 -81.6156 250° West 416 479 32,000  Level Indianapolis Center
10:34PM 38.3536 -81.7556 251° West 415 478 32,000  Level Indianapolis Center
10:35PM 38.3144 -81.8944 250° West 412 474 32,000  Level Indianapolis Center
10:36PM 38.2750 -82.0303 250° West 412 474 32,000  Level Indianapolis Center
10:37PM 38.2364 -82.1697 251° West 414 476 32,000  Level Indianapolis Center
10:38PM 38.1975 -82.3075 250° West 415 478 32,000  Level Indianapolis Center
10:39PM 38.1594 -82.4439 250° West 411 473 32,000  Level Indianapolis Center
10:40PM 38.1142 -82.6019 250° West 414 476 32,000  Level Indianapolis Center
10:41PM 38.0750 -82.7364 250° West 410 472 32,000  Level Indianapolis Center
10:42PM 38.0358 -82.8722 250° West 411 473 32,000  Level Indianapolis Center
10:43PM 37.9967 -83.0097 250° West 414 476 32,000  Level Indianapolis Center
10:44PM 37.9575 -83.1458 250° West 412 474 32,000 -840 Level Indianapolis Center
10:45PM 37.9178 -83.2806 250° West 410 472 30,400 -1,680 Descending Indianapolis Center
10:46PM 37.8739 -83.4311 250° West 394 453 28,700 -1,620 Descending Indianapolis Center
10:47PM 37.8356 -83.5564 249° West 385 443 27,200 -1,500 Descending Indianapolis Center
10:48PM 37.7994 -83.6775 249° West 373 429 25,700 -1,380 Descending Indianapolis Center
10:49PM 37.7614 -83.7978 248° West 370 426 24,400 -1,260 Descending Indianapolis Center
10:50PM 37.7236 -83.9181 248° West 369 425 23,200 -1,200 Descending Indianapolis Center
10:51PM 37.6886 -84.0358 249° West 359 413 22,000 -1,260 Descending Indianapolis Center
10:52PM 37.6561 -84.1506 250° West 351 404 20,700 -1,320 Descending Indianapolis Center
10:53PM 37.6003 -84.2547 236° Southwest 355 409 19,400 -1,320 Descending Indianapolis Center
10:54PM 37.5478 -84.3528 236° Southwest 341 392 18,100 -780 Descending Indianapolis Center
10:55PM 37.4883 -84.4681 237° Southwest 337 388 17,900 -840 Descending Indianapolis Center
10:56PM 37.4386 -84.5647 237° Southwest 332 382 16,400 -900 Descending Indianapolis Center
10:57PM 37.4147 -84.6728 254° West 325 374 16,100 -180 Descending Indianapolis Center
10:58PM 37.3972 -84.7800 258° West 317 365 16,100 -780 Level Indianapolis Center
10:59PM 37.4675 -84.8356 328° Northwest 309 356 14,600 -1,560 Descending Indianapolis Center
11:00PM 37.5503 -84.8583 348° North 305 351 13,000 -1,680 Descending Indianapolis Center
11:01PM 37.6214 -84.9108 330° Northwest 305 351 11,300 -1,500 Descending Indianapolis Center
11:02PM 37.6764 -84.9867 313° West 294 338 10,000 -660 Descending Indianapolis Center
11:03PM 37.7331 -85.0647 313° West 290 334 10,000 -720 Level Indianapolis Center
11:05PM 37.8058 -85.2475 297° West 275 316 7,900 -1,140 Descending Indianapolis Center
11:06PM 37.8233 -85.3392 284° West 271 312 6,700 -1,080 Descending Indianapolis Center
11:07PM 37.8378 -85.4194 283° West 265 305 5,800 -960 Descending Indianapolis Center
11:08PM 37.8597 -85.5075 288° West 263 303 4,800 -1,020 Descending Indianapolis Center
11:09PM 37.9061 -85.5811 309° West 268 308 3,800 -900 Descending Indianapolis Center
11:10PM 37.9633 -85.6406 321° Northwest 268 308 3,000 -840 Descending Indianapolis Center